Time;durP1;ratioP1;P1;durP2;ratioP2;P2;SDS_P1;SDS_P2;PMS_P1;PMS_P2;Temp;Humidity;BMP_temperature;BMP_pressure;BME280_temperature;BME280_humidity;BME280_pressure;Samples;Min_cycle;Max_cycle;Signal;HPM_P1;HPM_P2
2023/12/30 00:03:11;;;;;;;2.08;1.00;;;;;;;;;;8252190;28;20046;-59
2023/12/30 00:07:11;;;;;;;3.42;1.17;;;;;;;;;;8262013;28;20097;-58
2023/12/30 00:11:14;;;;;;;1.80;0.80;;;;;;;;;;8260811;28;20030;-59
2023/12/30 00:15:14;;;;;;;1.67;0.65;;;;;;;;;;8257893;28;20192;-59
2023/12/30 00:19:15;;;;;;;1.90;0.88;;;;;;;;;;8256380;28;20017;-58
2023/12/30 00:23:15;;;;;;;2.28;0.85;;;;;;;;;;8254807;28;20029;-58
2023/12/30 00:27:16;;;;;;;2.75;1.00;;;;;;;;;;8254332;28;20024;-58
2023/12/30 00:31:22;;;;;;;1.20;0.80;;;;;;;;;;8210700;28;20042;-59
2023/12/30 00:35:23;;;;;;;3.83;1.33;;;;;;;;;;8197735;28;20022;-59
2023/12/30 00:39:23;;;;;;;2.80;1.00;;;;;;;;;;8179663;28;20042;-59
2023/12/30 00:43:23;;;;;;;2.88;0.93;;;;;;;;;;8185993;28;20284;-59
2023/12/30 00:47:23;;;;;;;5.47;1.23;;;;;;;;;;8204624;28;20034;-59
2023/12/30 00:51:23;;;;;;;2.88;1.00;;;;;;;;;;8216261;28;20033;-58
2023/12/30 00:55:24;;;;;;;4.35;1.02;;;;;;;;;;8218381;28;20021;-58
2023/12/30 00:59:24;;;;;;;1.97;0.90;;;;;;;;;;8218047;28;20085;-58
2023/12/30 01:03:24;;;;;;;5.25;1.17;;;;;;;;;;8220121;28;20331;-59
2023/12/30 01:07:24;;;;;;;1.98;0.80;;;;;;;;;;8218268;28;20026;-58
2023/12/30 01:11:25;;;;;;;3.50;1.07;;;;;;;;;;8219764;28;21284;-59
2023/12/30 01:15:25;;;;;;;2.10;1.00;;;;;;;;;;8221222;28;20667;-58
2023/12/30 01:19:26;;;;;;;2.60;0.88;;;;;;;;;;8225100;28;20109;-58
2023/12/30 01:23:26;;;;;;;3.72;1.10;;;;;;;;;;8253316;28;20513;-58
2023/12/30 01:27:27;;;;;;;4.65;1.20;;;;;;;;;;8249688;28;20021;-58
2023/12/30 01:31:27;;;;;;;4.53;1.00;;;;;;;;;;8249555;28;20038;-58
2023/12/30 01:35:27;;;;;;;5.00;1.40;;;;;;;;;;8251264;28;20038;-58
2023/12/30 01:39:27;;;;;;;5.05;1.30;;;;;;;;;;8243339;28;20057;-59
2023/12/30 01:43:28;;;;;;;4.40;1.38;;;;;;;;;;8220333;28;20128;-59
2023/12/30 01:47:29;;;;;;;3.60;1.08;;;;;;;;;;8221303;28;20144;-58
2023/12/30 01:51:29;;;;;;;2.78;1.17;;;;;;;;;;8220704;28;20022;-59
2023/12/30 01:55:29;;;;;;;4.70;1.10;;;;;;;;;;8222099;28;20022;-68
2023/12/30 01:59:30;;;;;;;5.90;1.23;;;;;;;;;;8222186;28;20022;-59
2023/12/30 02:03:30;;;;;;;4.72;1.20;;;;;;;;;;8221134;28;20470;-59
2023/12/30 02:07:31;;;;;;;4.30;1.40;;;;;;;;;;8224859;28;20114;-59
2023/12/30 02:11:31;;;;;;;2.97;1.30;;;;;;;;;;8215470;28;20068;-59
2023/12/30 02:15:31;;;;;;;3.25;1.23;;;;;;;;;;8221060;28;20038;-59
2023/12/30 02:19:33;;;;;;;1.45;1.00;;;;;;;;;;8225590;28;20049;-58
2023/12/30 02:23:33;;;;;;;3.20;1.30;;;;;;;;;;8228390;28;20030;-59
2023/12/30 02:27:33;;;;;;;3.40;1.00;;;;;;;;;;8226558;28;20102;-59
2023/12/30 02:31:45;;;;;;;5.88;1.58;;;;;;;;;;8229397;28;20825;-59
2023/12/30 02:35:47;;;;;;;3.25;1.38;;;;;;;;;;8224303;28;20025;-60
2023/12/30 02:39:47;;;;;;;5.72;1.27;;;;;;;;;;8223800;28;20105;-58
2023/12/30 02:44:01;;;;;;;5.63;1.40;;;;;;;;;;8226838;28;20617;-58
2023/12/30 02:48:02;;;;;;;4.88;1.13;;;;;;;;;;8223317;28;20349;-59
2023/12/30 02:52:02;;;;;;;1.80;1.00;;;;;;;;;;8252454;28;20758;-58
2023/12/30 02:56:02;;;;;;;5.60;1.30;;;;;;;;;;8260886;28;20033;-58
2023/12/30 03:00:03;;;;;;;8.45;1.40;;;;;;;;;;8255670;28;20288;-58
2023/12/30 03:04:03;;;;;;;4.45;1.23;;;;;;;;;;8253376;28;20476;-58
2023/12/30 03:08:03;;;;;;;3.40;1.45;;;;;;;;;;8252456;28;21017;-59
2023/12/30 03:12:04;;;;;;;4.43;1.23;;;;;;;;;;8229717;28;20026;-59
2023/12/30 03:16:04;;;;;;;3.80;1.23;;;;;;;;;;8225784;28;20277;-58
2023/12/30 03:20:09;;;;;;;4.57;1.30;;;;;;;;;;8223329;28;20346;-58
2023/12/30 03:24:09;;;;;;;6.00;1.63;;;;;;;;;;8226310;28;20113;-58
2023/12/30 03:28:09;;;;;;;4.38;1.40;;;;;;;;;;8223967;28;20100;-58
2023/12/30 03:32:10;;;;;;;4.40;1.10;;;;;;;;;;8222380;28;20463;-58
2023/12/30 03:36:10;;;;;;;7.35;1.70;;;;;;;;;;8222504;28;20048;-58
2023/12/30 03:40:10;;;;;;;6.77;2.00;;;;;;;;;;8231954;28;20060;-58
2023/12/30 03:44:11;;;;;;;9.23;1.55;;;;;;;;;;8258638;28;20029;-59
2023/12/30 03:48:11;;;;;;;6.35;1.42;;;;;;;;;;8262124;28;20081;-58
2023/12/30 03:52:12;;;;;;;6.30;1.60;;;;;;;;;;8261418;28;20025;-59
2023/12/30 03:56:13;;;;;;;10.52;1.83;;;;;;;;;;8259408;28;20292;-57
2023/12/30 04:00:13;;;;;;;3.83;1.17;;;;;;;;;;8247476;28;20080;-58
2023/12/30 04:04:13;;;;;;;13.68;1.80;;;;;;;;;;8226505;28;20033;-59
2023/12/30 04:08:13;;;;;;;7.07;1.57;;;;;;;;;;8226153;28;20032;-59
2023/12/30 04:12:14;;;;;;;6.50;1.60;;;;;;;;;;8219230;28;20662;-58
2023/12/30 04:16:14;;;;;;;9.02;1.73;;;;;;;;;;8224197;28;20042;-59
2023/12/30 04:20:14;;;;;;;9.25;1.58;;;;;;;;;;8222648;28;20513;-58
2023/12/30 04:24:14;;;;;;;8.65;1.65;;;;;;;;;;8222338;28;20099;-58
2023/12/30 04:28:14;;;;;;;9.73;1.38;;;;;;;;;;8225001;28;20077;-58
2023/12/30 04:32:15;;;;;;;8.43;2.00;;;;;;;;;;8223531;28;20041;-58
2023/12/30 04:36:15;;;;;;;6.93;1.50;;;;;;;;;;8223736;28;20128;-58
2023/12/30 04:40:16;;;;;;;8.25;1.58;;;;;;;;;;8224746;28;20281;-58
2023/12/30 04:44:16;;;;;;;10.00;1.58;;;;;;;;;;8225544;28;20038;-58
2023/12/30 04:48:16;;;;;;;8.27;1.58;;;;;;;;;;8220792;28;20588;-58
2023/12/30 04:52:16;;;;;;;6.00;1.47;;;;;;;;;;8223864;28;20048;-58
2023/12/30 04:56:17;;;;;;;6.30;1.70;;;;;;;;;;8222176;28;20029;-58
2023/12/30 05:00:17;;;;;;;6.78;1.65;;;;;;;;;;8220911;28;20030;-58
2023/12/30 05:04:17;;;;;;;7.15;1.30;;;;;;;;;;8220861;28;20036;-58
2023/12/30 05:08:17;;;;;;;9.13;1.50;;;;;;;;;;8223515;28;20829;-58
2023/12/30 05:12:17;;;;;;;6.95;1.90;;;;;;;;;;8221830;28;20021;-58
2023/12/30 05:16:18;;;;;;;7.20;1.85;;;;;;;;;;8221894;28;20033;-58
2023/12/30 05:20:18;;;;;;;7.35;1.65;;;;;;;;;;8221809;28;20025;-59
2023/12/30 05:24:18;;;;;;;7.68;1.70;;;;;;;;;;8223338;28;20076;-58
2023/12/30 05:28:19;;;;;;;3.83;1.40;;;;;;;;;;8221388;28;20034;-57
2023/12/30 05:32:19;;;;;;;5.43;1.40;;;;;;;;;;8245252;28;20733;-58
2023/12/30 05:36:21;;;;;;;7.47;2.03;;;;;;;;;;8259546;28;20082;-58
2023/12/30 05:40:22;;;;;;;8.10;1.83;;;;;;;;;;8248541;28;20025;-58
2023/12/30 05:44:22;;;;;;;8.38;1.60;;;;;;;;;;8253995;28;22027;-58
2023/12/30 05:48:22;;;;;;;7.38;1.70;;;;;;;;;;8260743;28;20057;-57
2023/12/30 05:52:22;;;;;;;4.28;1.65;;;;;;;;;;8235884;28;20026;-58
2023/12/30 05:56:23;;;;;;;8.00;1.88;;;;;;;;;;8231128;28;20715;-59
2023/12/30 06:00:23;;;;;;;6.90;1.70;;;;;;;;;;8231796;28;20145;-58
2023/12/30 06:04:24;;;;;;;5.40;1.60;;;;;;;;;;8230491;28;20053;-57
2023/12/30 06:08:25;;;;;;;6.80;1.70;;;;;;;;;;8231568;28;20288;-58
2023/12/30 06:12:25;;;;;;;8.25;1.77;;;;;;;;;;8231255;28;20140;-57
2023/12/30 06:16:25;;;;;;;5.07;1.50;;;;;;;;;;8230071;28;20115;-58
2023/12/30 06:20:25;;;;;;;10.17;1.97;;;;;;;;;;8231747;28;20025;-58
2023/12/30 06:24:26;;;;;;;9.32;1.60;;;;;;;;;;8232078;28;20099;-58
2023/12/30 06:28:27;;;;;;;13.65;2.00;;;;;;;;;;8227395;28;20050;-58
2023/12/30 06:32:27;;;;;;;8.50;1.90;;;;;;;;;;8230476;28;20035;-59
2023/12/30 06:36:27;;;;;;;6.13;2.13;;;;;;;;;;8226297;28;20570;-59
2023/12/30 06:40:27;;;;;;;8.07;1.90;;;;;;;;;;8220541;28;20081;-58
2023/12/30 06:44:27;;;;;;;7.97;1.92;;;;;;;;;;8231694;28;20037;-59
2023/12/30 06:48:29;;;;;;;6.28;1.77;;;;;;;;;;8230907;28;20064;-58
2023/12/30 06:52:29;;;;;;;9.43;1.90;;;;;;;;;;8232323;28;20117;-58
2023/12/30 06:56:29;;;;;;;8.48;2.10;;;;;;;;;;8230252;28;20025;-58
2023/12/30 07:00:30;;;;;;;9.02;2.53;;;;;;;;;;8231303;28;20030;-59
2023/12/30 07:04:31;;;;;;;5.40;2.05;;;;;;;;;;8229052;28;20091;-59
2023/12/30 07:08:31;;;;;;;8.55;2.20;;;;;;;;;;8224990;28;20725;-58
2023/12/30 07:12:32;;;;;;;8.85;1.80;;;;;;;;;;8230640;28;20213;-58
2023/12/30 07:16:33;;;;;;;6.30;2.00;;;;;;;;;;8262017;28;20483;-58
2023/12/30 07:20:35;;;;;;;10.73;2.13;;;;;;;;;;8259921;28;20479;-58
2023/12/30 07:24:37;;;;;;;5.28;1.88;;;;;;;;;;8232820;28;20172;-58
2023/12/30 07:28:37;;;;;;;5.70;1.90;;;;;;;;;;8229387;28;20022;-58
2023/12/30 07:32:37;;;;;;;5.82;1.50;;;;;;;;;;8224262;28;20144;-58
2023/12/30 07:36:37;;;;;;;6.97;1.85;;;;;;;;;;8225504;28;20024;-58
2023/12/30 07:40:38;;;;;;;10.38;2.38;;;;;;;;;;8225221;28;20492;-58
2023/12/30 07:44:38;;;;;;;8.30;2.40;;;;;;;;;;8222721;28;20026;-58
2023/12/30 07:48:38;;;;;;;9.23;2.10;;;;;;;;;;8226337;28;20049;-57
2023/12/30 07:52:38;;;;;;;8.40;2.50;;;;;;;;;;8230103;28;20022;-58
2023/12/30 07:56:38;;;;;;;10.30;2.10;;;;;;;;;;8225619;28;20091;-57
2023/12/30 08:00:38;;;;;;;13.43;5.93;;;;;;;;;;8223919;28;20041;-57
2023/12/30 08:04:41;;;;;;;8.02;2.67;;;;;;;;;;8225332;28;20125;-58
2023/12/30 08:08:41;;;;;;;7.93;2.08;;;;;;;;;;8224288;28;20084;-58
2023/12/30 08:12:42;;;;;;;7.93;2.20;;;;;;;;;;8227911;28;20566;-59
2023/12/30 08:16:42;;;;;;;7.40;1.93;;;;;;;;;;8256989;28;20040;-58
2023/12/30 08:20:44;;;;;;;7.67;3.27;;;;;;;;;;8256021;28;20273;-59
2023/12/30 08:24:44;;;;;;;11.38;5.47;;;;;;;;;;8231515;28;20764;-58
2023/12/30 08:28:45;;;;;;;11.60;3.60;;;;;;;;;;8228224;28;20032;-58
2023/12/30 08:32:45;;;;;;;9.88;2.63;;;;;;;;;;8221986;28;20677;-59
2023/12/30 08:36:45;;;;;;;8.10;2.67;;;;;;;;;;8223588;28;20028;-59
2023/12/30 08:40:46;;;;;;;9.45;4.07;;;;;;;;;;8226003;28;20026;-59
2023/12/30 08:44:46;;;;;;;12.50;3.07;;;;;;;;;;8221250;28;21500;-59
2023/12/30 08:48:47;;;;;;;8.98;2.45;;;;;;;;;;8222668;28;20413;-60
2023/12/30 08:52:47;;;;;;;6.68;2.63;;;;;;;;;;8223784;28;20136;-59
2023/12/30 08:56:48;;;;;;;6.47;2.27;;;;;;;;;;8221751;28;20568;-59
2023/12/30 09:00:49;;;;;;;5.88;2.17;;;;;;;;;;8218400;28;20285;-61
2023/12/30 09:04:49;;;;;;;6.38;2.20;;;;;;;;;;8220213;28;20116;-60
2023/12/30 09:08:49;;;;;;;7.50;2.60;;;;;;;;;;8225404;28;20029;-59
2023/12/30 09:12:49;;;;;;;7.65;2.40;;;;;;;;;;8218999;28;21066;-59
2023/12/30 09:16:50;;;;;;;6.32;2.00;;;;;;;;;;8218288;28;20061;-59
2023/12/30 09:20:50;;;;;;;5.73;1.60;;;;;;;;;;8214754;28;20310;-59
2023/12/30 09:24:50;;;;;;;5.17;1.80;;;;;;;;;;8238733;28;20901;-57
2023/12/30 09:28:50;;;;;;;5.38;1.45;;;;;;;;;;8252193;28;22001;-59
2023/12/30 09:32:50;;;;;;;8.27;1.80;;;;;;;;;;8247517;28;20049;-59
2023/12/30 09:36:51;;;;;;;9.65;1.42;;;;;;;;;;8219756;28;20495;-58
2023/12/30 09:40:51;;;;;;;6.07;1.90;;;;;;;;;;8218820;28;20109;-59
2023/12/30 09:44:51;;;;;;;8.70;1.92;;;;;;;;;;8241075;28;20029;-59
2023/12/30 09:48:52;;;;;;;6.38;2.08;;;;;;;;;;8246783;28;20044;-58
2023/12/30 09:52:53;;;;;;;6.80;1.70;;;;;;;;;;8250919;28;20057;-58
2023/12/30 09:56:53;;;;;;;5.83;1.20;;;;;;;;;;8251323;28;20022;-59
2023/12/30 10:00:59;;;;;;;8.52;1.83;;;;;;;;;;8250800;28;20352;-58
2023/12/30 10:04:59;;;;;;;9.45;1.70;;;;;;;;;;8252383;28;20022;-58
2023/12/30 10:09:01;;;;;;;5.30;1.40;;;;;;;;;;8245183;28;20032;-58
2023/12/30 10:13:01;;;;;;;4.95;1.42;;;;;;;;;;8246737;28;20315;-58
2023/12/30 10:17:02;;;;;;;5.88;1.60;;;;;;;;;;8246176;28;20210;-59
2023/12/30 10:21:04;;;;;;;6.60;1.65;;;;;;;;;;8239842;28;20745;-58
2023/12/30 10:25:04;;;;;;;5.47;1.60;;;;;;;;;;8239069;28;20507;-59
2023/12/30 10:29:05;;;;;;;4.80;1.45;;;;;;;;;;8243823;28;20026;-59
2023/12/30 10:33:06;;;;;;;6.47;1.65;;;;;;;;;;8234790;28;20585;-58
2023/12/30 10:37:06;;;;;;;6.65;1.58;;;;;;;;;;8217132;28;20131;-58
2023/12/30 10:41:07;;;;;;;4.90;1.52;;;;;;;;;;8219254;28;20455;-59
2023/12/30 10:45:07;;;;;;;4.43;1.50;;;;;;;;;;8224781;28;20040;-58
2023/12/30 10:49:10;;;;;;;3.78;2.08;;;;;;;;;;8221654;28;20055;-59
2023/12/30 10:53:16;;;;;;;5.13;1.55;;;;;;;;;;8222259;28;20032;-58
2023/12/30 10:57:17;;;;;;;3.65;1.52;;;;;;;;;;8225222;28;20057;-59
2023/12/30 11:01:19;;;;;;;3.58;1.60;;;;;;;;;;8220636;28;20120;-59
2023/12/30 11:05:27;;;;;;;5.38;1.77;;;;;;;;;;8224047;28;20111;-59
2023/12/30 11:09:27;;;;;;;3.20;1.50;;;;;;;;;;8220851;28;20042;-59
2023/12/30 11:13:33;;;;;;;5.18;1.90;;;;;;;;;;8221461;28;20403;-64
2023/12/30 11:17:34;;;;;;;7.20;1.80;;;;;;;;;;8220417;28;20744;-59
2023/12/30 11:21:39;;;;;;;4.40;1.70;;;;;;;;;;8220861;28;20446;-60
2023/12/30 11:25:44;;;;;;;6.22;1.75;;;;;;;;;;8219667;28;20641;-59
2023/12/30 11:29:45;;;;;;;5.30;1.73;;;;;;;;;;8238314;28;20238;-59
2023/12/30 11:33:45;;;;;;;5.60;1.60;;;;;;;;;;8221425;28;20181;-60
2023/12/30 11:37:50;;;;;;;6.45;1.58;;;;;;;;;;8226432;28;20280;-60
2023/12/30 11:41:53;;;;;;;6.32;1.27;;;;;;;;;;8223296;28;20052;-58
2023/12/30 11:45:54;;;;;;;5.47;1.48;;;;;;;;;;8241924;28;20038;-59
2023/12/30 11:50:00;;;;;;;7.65;1.70;;;;;;;;;;8247829;28;20021;-59
2023/12/30 11:54:02;;;;;;;4.80;1.45;;;;;;;;;;8244579;28;20030;-59
2023/12/30 11:58:03;;;;;;;6.10;1.67;;;;;;;;;;8221970;28;20026;-59
2023/12/30 12:02:07;;;;;;;6.27;1.40;;;;;;;;;;8222544;28;23537;-59
2023/12/30 12:06:07;;;;;;;6.05;1.30;;;;;;;;;;8241313;28;20059;-59
2023/12/30 12:10:08;;;;;;;7.17;1.50;;;;;;;;;;8246763;28;20033;-59
2023/12/30 12:14:10;;;;;;;6.40;1.42;;;;;;;;;;8246430;28;20291;-59
2023/12/30 12:18:10;;;;;;;6.15;1.40;;;;;;;;;;8246824;28;20034;-59
2023/12/30 12:22:13;;;;;;;7.17;1.70;;;;;;;;;;8239065;28;20076;-59
2023/12/30 12:26:13;;;;;;;8.00;1.83;;;;;;;;;;8228955;28;20285;-59
2023/12/30 12:30:15;;;;;;;6.32;1.42;;;;;;;;;;8222089;28;20037;-59
2023/12/30 12:34:25;;;;;;;5.93;1.40;;;;;;;;;;8226610;28;20614;-59
2023/12/30 12:38:25;;;;;;;6.45;1.40;;;;;;;;;;8224652;28;20017;-60
2023/12/30 12:42:25;;;;;;;9.50;1.73;;;;;;;;;;8222624;28;20568;-60
2023/12/30 12:46:25;;;;;;;4.88;1.30;;;;;;;;;;8224713;28;20042;-65
2023/12/30 12:50:26;;;;;;;8.05;1.55;;;;;;;;;;8225473;28;20029;-60
2023/12/30 12:54:26;;;;;;;7.53;1.80;;;;;;;;;;8219425;28;20026;-59
2023/12/30 12:58:26;;;;;;;4.10;1.33;;;;;;;;;;8225816;28;20108;-59
2023/12/30 13:02:27;;;;;;;7.75;1.48;;;;;;;;;;8213377;28;20128;-59
2023/12/30 13:06:28;;;;;;;7.22;2.13;;;;;;;;;;8223968;28;20030;-59
2023/12/30 13:10:42;;;;;;;3.63;1.70;;;;;;;;;;8219127;28;20026;-58
2023/12/30 13:14:42;;;;;;;;;;;;;;;;;;8217279;28;20773;-59
2023/12/30 13:18:43;;;;;;;5.85;1.35;;;;;;;;;;8211997;28;20448;-58
2023/12/30 13:22:43;;;;;;;7.43;1.75;;;;;;;;;;8216505;28;20307;-59
2023/12/30 13:26:43;;;;;;;4.55;1.30;;;;;;;;;;8212452;28;20030;-58
2023/12/30 13:30:43;;;;;;;3.13;1.20;;;;;;;;;;8212769;28;20072;-59
2023/12/30 13:34:44;;;;;;;8.43;2.00;;;;;;;;;;8229193;28;20124;-58
2023/12/30 13:38:52;;;;;;;4.13;1.20;;;;;;;;;;8233356;28;20022;-60
2023/12/30 13:42:54;;;;;;;4.63;1.17;;;;;;;;;;8240245;28;20132;-59
2023/12/30 13:50:56;;;;;;;8.50;1.50;;;;;;;;;;8235659;28;20054;-59
2023/12/30 13:54:57;;;;;;;5.45;1.30;;;;;;;;;;8237713;28;20022;-59
2023/12/30 13:58:57;;;;;;;3.55;1.33;;;;;;;;;;8233722;28;20022;-58
2023/12/30 14:03:03;;;;;;;3.90;1.23;;;;;;;;;;8236469;28;20065;-57
2023/12/30 14:07:08;;;;;;;5.30;1.80;;;;;;;;;;8217670;28;20042;-58
2023/12/30 14:11:20;;;;;;;3.72;1.77;;;;;;;;;;8214293;28;20651;-59
2023/12/30 14:15:21;;;;;;;3.03;1.40;;;;;;;;;;8226090;28;20029;-58
2023/12/30 14:19:21;;;;;;;4.95;1.35;;;;;;;;;;8238783;28;20080;-58
2023/12/30 14:23:21;;;;;;;3.72;1.38;;;;;;;;;;8232007;28;20411;-59
2023/12/30 14:27:21;;;;;;;3.10;1.20;;;;;;;;;;8220866;28;20034;-59
2023/12/30 14:31:22;;;;;;;3.92;1.33;;;;;;;;;;8218463;28;20100;-59
2023/12/30 14:35:22;;;;;;;5.15;1.30;;;;;;;;;;8221876;28;20025;-59
2023/12/30 14:39:22;;;;;;;4.97;1.42;;;;;;;;;;8219931;28;20055;-58
2023/12/30 14:43:22;;;;;;;6.90;1.57;;;;;;;;;;8221684;28;20034;-58
2023/12/30 14:47:22;;;;;;;5.45;1.38;;;;;;;;;;8220150;28;20272;-59
2023/12/30 14:51:23;;;;;;;4.05;1.27;;;;;;;;;;8221833;28;20026;-59
2023/12/30 14:55:23;;;;;;;7.95;1.30;;;;;;;;;;8221471;28;20169;-58
2023/12/30 14:59:25;;;;;;;5.43;1.00;;;;;;;;;;8222643;28;20026;-58
2023/12/30 15:03:25;;;;;;;4.80;1.20;;;;;;;;;;8222311;28;20033;-57
2023/12/30 15:07:25;;;;;;;4.70;1.50;;;;;;;;;;8222574;28;21750;-59
2023/12/30 15:11:26;;;;;;;4.50;1.47;;;;;;;;;;8222341;28;20025;-58
2023/12/30 15:15:27;;;;;;;4.60;1.02;;;;;;;;;;8231605;28;20415;-59
2023/12/30 15:19:27;;;;;;;3.05;0.82;;;;;;;;;;8248235;28;20094;-58
2023/12/30 15:23:28;;;;;;;3.65;0.80;;;;;;;;;;8241155;28;20037;-58
2023/12/30 15:27:28;;;;;;;5.50;1.17;;;;;;;;;;8219550;28;20042;-59
2023/12/30 15:31:28;;;;;;;4.00;1.23;;;;;;;;;;8217199;28;20057;-59
2023/12/30 15:35:30;;;;;;;4.75;1.20;;;;;;;;;;8232507;28;20093;-58
2023/12/30 15:39:30;;;;;;;3.67;1.10;;;;;;;;;;8251695;28;20022;-59
2023/12/30 15:43:31;;;;;;;3.08;1.02;;;;;;;;;;8244402;28;20021;-58
2023/12/30 15:47:31;;;;;;;4.70;1.40;;;;;;;;;;8250937;28;20053;-59
2023/12/30 15:51:32;;;;;;;2.50;1.02;;;;;;;;;;8255511;28;20025;-60
2023/12/30 15:55:32;;;;;;;1.98;1.05;;;;;;;;;;8235661;28;20021;-58
2023/12/30 15:59:32;;;;;;;1.80;0.70;;;;;;;;;;8219152;28;20496;-58
2023/12/30 16:03:32;;;;;;;1.80;0.60;;;;;;;;;;8219967;28;21251;-59
2023/12/30 16:07:33;;;;;;;3.30;1.20;;;;;;;;;;8221787;28;20324;-59
2023/12/30 16:11:35;;;;;;;2.08;0.80;;;;;;;;;;8214557;28;20030;-59
2023/12/30 16:15:35;;;;;;;2.25;0.90;;;;;;;;;;8217284;28;20036;-58
2023/12/30 16:19:36;;;;;;;2.90;0.80;;;;;;;;;;8217733;28;20120;-59
2023/12/30 16:23:36;;;;;;;1.20;0.77;;;;;;;;;;8212031;28;20057;-58
2023/12/30 16:27:36;;;;;;;1.48;0.63;;;;;;;;;;8217994;28;20032;-58
2023/12/30 16:31:36;;;;;;;1.25;0.75;;;;;;;;;;8217037;28;20045;-59
2023/12/30 16:35:36;;;;;;;0.77;0.70;;;;;;;;;;8247764;28;20048;-59
2023/12/30 16:39:39;;;;;;;1.70;0.70;;;;;;;;;;8262425;28;20030;-58
2023/12/30 16:43:39;;;;;;;1.33;0.70;;;;;;;;;;8246921;28;20140;-58
2023/12/30 16:47:40;;;;;;;3.17;1.00;;;;;;;;;;8217130;28;20149;-57
2023/12/30 16:51:41;;;;;;;2.28;1.10;;;;;;;;;;8216782;28;20026;-57
2023/12/30 16:55:42;;;;;;;2.17;1.15;;;;;;;;;;8215926;28;20079;-58
2023/12/30 16:59:42;;;;;;;2.00;0.80;;;;;;;;;;8215967;28;20075;-58
2023/12/30 17:03:43;;;;;;;1.30;0.80;;;;;;;;;;8214087;28;20044;-60
2023/12/30 17:07:44;;;;;;;2.95;0.90;;;;;;;;;;8217597;28;20779;-58
2023/12/30 17:11:44;;;;;;;2.58;1.10;;;;;;;;;;8214649;28;20026;-58
2023/12/30 17:15:44;;;;;;;2.10;1.00;;;;;;;;;;8218908;28;20030;-58
2023/12/30 17:19:44;;;;;;;1.90;1.02;;;;;;;;;;8216020;28;20050;-58
2023/12/30 17:23:45;;;;;;;2.58;0.95;;;;;;;;;;8215400;28;20572;-58
2023/12/30 17:27:45;;;;;;;2.40;1.00;;;;;;;;;;8219072;28;20041;-59
2023/12/30 17:31:45;;;;;;;3.28;1.20;;;;;;;;;;8211904;28;20802;-59
2023/12/30 17:35:45;;;;;;;2.67;1.02;;;;;;;;;;8215522;28;20080;-59
2023/12/30 17:39:46;;;;;;;2.05;1.33;;;;;;;;;;8211049;28;20032;-60
2023/12/30 17:43:46;;;;;;;1.90;0.85;;;;;;;;;;8221482;28;20030;-59
2023/12/30 17:47:48;;;;;;;3.17;0.90;;;;;;;;;;8213985;28;20044;-57
2023/12/30 17:51:48;;;;;;;2.30;1.00;;;;;;;;;;8216769;28;20035;-58
2023/12/30 17:55:49;;;;;;;4.03;1.08;;;;;;;;;;8216266;28;20018;-58
2023/12/30 17:59:49;;;;;;;1.95;1.10;;;;;;;;;;8217471;28;20564;-58
2023/12/30 18:03:51;;;;;;;3.63;1.20;;;;;;;;;;8214640;28;20136;-58
2023/12/30 18:07:51;;;;;;;1.95;1.20;;;;;;;;;;8216361;28;20026;-58
2023/12/30 18:11:51;;;;;;;4.03;1.40;;;;;;;;;;8211086;28;20026;-58
2023/12/30 18:15:51;;;;;;;1.47;1.20;;;;;;;;;;8214518;28;20312;-57
2023/12/30 18:19:51;;;;;;;3.28;1.30;;;;;;;;;;8215203;28;20296;-58
2023/12/30 18:23:52;;;;;;;2.22;1.27;;;;;;;;;;8213102;28;20125;-58
2023/12/30 18:27:52;;;;;;;3.85;1.50;;;;;;;;;;8212068;28;20022;-57
2023/12/30 18:31:52;;;;;;;3.65;1.88;;;;;;;;;;8210352;28;20038;-57
2023/12/30 18:35:52;;;;;;;3.28;1.63;;;;;;;;;;8216693;28;20062;-59
2023/12/30 18:39:52;;;;;;;4.35;2.28;;;;;;;;;;8216456;28;20021;-59
2023/12/30 18:43:53;;;;;;;2.10;1.50;;;;;;;;;;8224810;28;20023;-58
2023/12/30 18:47:55;;;;;;;2.13;1.35;;;;;;;;;;8256998;28;20296;-59
2023/12/30 18:51:55;;;;;;;4.07;1.30;;;;;;;;;;8256876;28;20021;-59
2023/12/30 18:56:02;;;;;;;1.75;0.95;;;;;;;;;;8257161;28;20108;-58
2023/12/30 19:00:04;;;;;;;2.00;1.20;;;;;;;;;;8257025;28;20026;-59
2023/12/30 19:04:04;;;;;;;1.42;1.20;;;;;;;;;;8256044;28;20813;-58
2023/12/30 19:08:04;;;;;;;1.85;1.30;;;;;;;;;;8222850;28;20164;-58
2023/12/30 19:12:05;;;;;;;4.53;2.17;;;;;;;;;;8219993;28;20063;-59
2023/12/30 19:16:06;;;;;;;2.55;1.80;;;;;;;;;;8223053;28;20062;-59
2023/12/30 19:20:07;;;;;;;2.08;1.10;;;;;;;;;;8223286;28;20054;-58
2023/12/30 19:24:08;;;;;;;1.15;0.88;;;;;;;;;;8222542;28;20060;-58
2023/12/30 19:28:09;;;;;;;1.88;1.35;;;;;;;;;;8215757;28;20057;-58
2023/12/30 19:32:09;;;;;;;1.83;1.40;;;;;;;;;;8217885;28;20073;-58
2023/12/30 19:36:10;;;;;;;6.05;2.47;;;;;;;;;;8225024;28;20113;-59
2023/12/30 19:40:10;;;;;;;1.48;1.20;;;;;;;;;;8220102;28;20021;-59
2023/12/30 19:44:11;;;;;;;2.58;1.10;;;;;;;;;;8220890;28;20021;-58
2023/12/30 19:48:11;;;;;;;2.70;1.38;;;;;;;;;;8223482;28;20925;-58
2023/12/30 19:52:11;;;;;;;1.88;1.00;;;;;;;;;;8225412;28;20037;-58
2023/12/30 19:56:12;;;;;;;0.90;0.90;;;;;;;;;;8241797;28;20938;-58
2023/12/30 20:00:13;;;;;;;1.92;1.10;;;;;;;;;;8254682;28;20018;-58
2023/12/30 20:04:19;;;;;;;1.65;1.00;;;;;;;;;;8263664;28;20022;-59
2023/12/30 20:08:19;;;;;;;0.80;0.80;;;;;;;;;;8258462;28;20048;-59
2023/12/30 20:12:20;;;;;;;0.93;0.90;;;;;;;;;;8256261;28;20133;-59
2023/12/30 20:16:20;;;;;;;1.38;0.82;;;;;;;;;;8237636;28;20064;-59
2023/12/30 20:20:20;;;;;;;1.02;0.90;;;;;;;;;;8218146;28;20022;-59
2023/12/30 20:24:20;;;;;;;1.25;0.90;;;;;;;;;;8217872;28;20034;-59
2023/12/30 20:28:20;;;;;;;0.80;0.80;;;;;;;;;;8212626;28;20454;-59
2023/12/30 20:32:21;;;;;;;2.60;1.00;;;;;;;;;;8214838;28;20587;-59
2023/12/30 20:36:22;;;;;;;0.90;0.90;;;;;;;;;;8220440;28;20015;-58
2023/12/30 20:40:22;;;;;;;1.50;1.00;;;;;;;;;;8217426;28;20056;-59
2023/12/30 20:44:23;;;;;;;1.73;1.13;;;;;;;;;;8219252;28;20032;-59
2023/12/30 20:48:23;;;;;;;2.67;1.25;;;;;;;;;;8220154;28;20042;-59
2023/12/30 20:52:23;;;;;;;2.30;1.52;;;;;;;;;;8217805;28;20030;-59
2023/12/30 20:56:24;;;;;;;3.63;2.53;;;;;;;;;;8212602;28;20015;-60
2023/12/30 21:00:24;;;;;;;2.72;2.00;;;;;;;;;;8209678;28;20257;-58
2023/12/30 21:04:25;;;;;;;2.95;1.70;;;;;;;;;;8224325;28;20030;-59
2023/12/30 21:19:21;;;;;;;3.95;2.78;;;;;;;;;;8331268;28;20571;-59
2023/12/30 21:23:22;;;;;;;4.13;2.97;;;;;;;;;;8333659;28;20178;-59
2023/12/30 21:27:22;;;;;;;3.13;2.47;;;;;;;;;;8353007;28;20033;-58
2023/12/30 21:31:22;;;;;;;2.42;2.00;;;;;;;;;;8352081;28;20025;-59
2023/12/30 21:35:22;;;;;;;5.93;3.75;;;;;;;;;;8312427;28;20029;-58
2023/12/30 21:39:22;;;;;;;13.15;6.25;;;;;;;;;;8310459;28;20480;-58
2023/12/30 21:43:23;;;;;;;4.50;3.70;;;;;;;;;;8312533;28;20051;-59
2023/12/30 21:47:24;;;;;;;7.97;4.13;;;;;;;;;;8314255;28;20034;-58
2023/12/30 21:51:24;;;;;;;3.70;2.38;;;;;;;;;;8310695;28;20021;-59
2023/12/30 21:55:25;;;;;;;3.00;2.20;;;;;;;;;;8311326;28;20071;-58
2023/12/30 21:59:25;;;;;;;2.73;2.27;;;;;;;;;;8315000;28;20082;-59
2023/12/30 22:03:25;;;;;;;4.03;1.88;;;;;;;;;;8306201;28;20030;-58
2023/12/30 22:07:25;;;;;;;2.30;1.70;;;;;;;;;;8305414;28;20032;-58
2023/12/30 22:11:27;;;;;;;3.17;1.88;;;;;;;;;;8306390;28;20025;-58
2023/12/30 22:15:27;;;;;;;4.28;2.33;;;;;;;;;;8308005;28;20247;-58
2023/12/30 22:19:28;;;;;;;5.53;2.03;;;;;;;;;;8309649;28;20555;-57
2023/12/30 22:23:29;;;;;;;1.60;1.50;;;;;;;;;;8304436;28;20340;-58
2023/12/30 22:27:29;;;;;;;2.55;1.60;;;;;;;;;;8276502;28;20239;-59
2023/12/30 22:31:29;;;;;;;4.10;1.30;;;;;;;;;;8248427;28;20034;-59
2023/12/30 22:35:32;;;;;;;3.97;1.60;;;;;;;;;;8251002;28;20040;-59
2023/12/30 22:39:33;;;;;;;3.50;1.45;;;;;;;;;;8249934;28;20284;-59
2023/12/30 22:43:33;;;;;;;2.97;1.80;;;;;;;;;;8259145;28;20025;-59
2023/12/30 22:47:34;;;;;;;3.17;1.77;;;;;;;;;;8256592;28;20033;-57
2023/12/30 22:51:35;;;;;;;1.38;1.23;;;;;;;;;;8256251;28;20028;-58
2023/12/30 22:55:35;;;;;;;1.52;1.05;;;;;;;;;;8255679;28;20790;-59
2023/12/30 22:59:36;;;;;;;1.80;1.20;;;;;;;;;;8255354;28;20035;-59
2023/12/30 23:03:37;;;;;;;1.73;1.33;;;;;;;;;;8254076;28;20164;-59
2023/12/30 23:07:44;;;;;;;1.55;1.20;;;;;;;;;;8285195;28;20037;-59
2023/12/30 23:11:45;;;;;;;1.25;1.08;;;;;;;;;;8286420;28;20029;-59
2023/12/30 23:15:46;;;;;;;1.13;0.90;;;;;;;;;;8286542;28;20053;-59
2023/12/30 23:19:46;;;;;;;1.00;1.00;;;;;;;;;;8285826;28;20025;-59
2023/12/30 23:23:48;;;;;;;0.95;0.93;;;;;;;;;;8287297;28;20033;-59
2023/12/30 23:27:48;;;;;;;1.85;1.00;;;;;;;;;;8256815;28;20051;-60
2023/12/30 23:31:49;;;;;;;1.30;1.20;;;;;;;;;;8249541;28;20037;-60
2023/12/30 23:35:49;;;;;;;3.03;1.02;;;;;;;;;;8250099;28;20025;-60
2023/12/30 23:39:49;;;;;;;0.80;0.80;;;;;;;;;;8251923;28;20021;-60
2023/12/30 23:43:50;;;;;;;1.15;1.05;;;;;;;;;;8244968;28;20107;-60
2023/12/30 23:47:52;;;;;;;1.30;1.20;;;;;;;;;;8290008;28;20034;-59
2023/12/30 23:51:53;;;;;;;1.40;1.17;;;;;;;;;;8290611;28;20033;-59
2023/12/30 23:55:53;;;;;;;1.30;1.15;;;;;;;;;;8291134;28;20037;-58
2023/12/30 23:59:53;;;;;;;2.08;1.10;;;;;;;;;;8289506;28;20021;-57
